ENT103T EPWR-EPWA
Flight info
| Callsign | ENT103T |
|---|---|
| Flight time | 0h 38m |
| Altitude | 31000 |
| Route | LUNUK DCT OKENO DCT GOGUS DCT AGAVA |
| Aircraft | B738/M-SDE2E3FGHIRWXY/LB1 |
Departure
| Time | 2026-05-07 13:35 |
|---|---|
| Airport | Copernicus Wrocław Airport (EPWR) |
Arrival
| Time | 2026-05-07 14:14 |
|---|---|
| Airport | Warsaw Chopin Airport (EPWA) |
| Time | Latitude | Longitude | Altitude | Speed | Heading |
|---|---|---|---|---|---|
| 2026-05-07 13:15 | 51.10994 | 16.87563 | 413 ft | 0 kts | 26° |
| 2026-05-07 13:27 | 51.10990 | 16.87561 | 412 ft | 2 kts | 27° |
| 2026-05-07 13:27 | 51.10977 | 16.87550 | 412 ft | 2 kts | 26° |
| 2026-05-07 13:27 | 51.10963 | 16.87539 | 412 ft | 2 kts | 26° |
| 2026-05-07 13:27 | 51.10950 | 16.87528 | 412 ft | 2 kts | 26° |
| 2026-05-07 13:28 | 51.10936 | 16.87517 | 412 ft | 2 kts | 26° |
| 2026-05-07 13:28 | 51.10930 | 16.87513 | 412 ft | 0 kts | 26° |
| 2026-05-07 13:30 | 51.10936 | 16.87521 | 412 ft | 1 kts | 62° |
| 2026-05-07 13:30 | 51.10931 | 16.87548 | 412 ft | 3 kts | 116° |
| 2026-05-07 13:30 | 51.10911 | 16.87609 | 412 ft | 8 kts | 118° |
| 2026-05-07 13:30 | 51.10875 | 16.87717 | 412 ft | 13 kts | 117° |
| 2026-05-07 13:31 | 51.10829 | 16.87869 | 412 ft | 17 kts | 115° |
| 2026-05-07 13:31 | 51.10772 | 16.88060 | 412 ft | 20 kts | 115° |
| 2026-05-07 13:31 | 51.10703 | 16.88281 | 412 ft | 23 kts | 117° |
| 2026-05-07 13:31 | 51.10628 | 16.88524 | 412 ft | 26 kts | 115° |
| 2026-05-07 13:32 | 51.10545 | 16.88800 | 412 ft | 29 kts | 116° |
| 2026-05-07 13:32 | 51.10452 | 16.89096 | 412 ft | 30 kts | 116° |
| 2026-05-07 13:32 | 51.10365 | 16.89381 | 412 ft | 27 kts | 116° |
| 2026-05-07 13:32 | 51.10282 | 16.89654 | 412 ft | 26 kts | 116° |
| 2026-05-07 13:33 | 51.10212 | 16.89879 | 412 ft | 19 kts | 116° |
| 2026-05-07 13:33 | 51.10156 | 16.89967 | 412 ft | 8 kts | 183° |
| 2026-05-07 13:33 | 51.10091 | 16.89925 | 412 ft | 11 kts | 205° |
| 2026-05-07 13:33 | 51.10012 | 16.89866 | 412 ft | 13 kts | 206° |
| 2026-05-07 13:34 | 51.09927 | 16.89799 | 412 ft | 9 kts | 210° |
| 2026-05-07 13:34 | 51.10034 | 16.89358 | 412 ft | 69 kts | 295° |
| 2026-05-07 13:34 | 51.10344 | 16.88337 | 413 ft | 134 kts | 296° |
| 2026-05-07 13:35 | 51.10829 | 16.86775 | 608 ft | 170 kts | 298° |
| 2026-05-07 13:35 | 51.11337 | 16.85068 | 1343 ft | 171 kts | 296° |
| 2026-05-07 13:35 | 51.11808 | 16.83437 | 2057 ft | 165 kts | 298° |
| 2026-05-07 13:35 | 51.12357 | 16.81697 | 2323 ft | 186 kts | 297° |
| 2026-05-07 13:36 | 51.12969 | 16.79689 | 2563 ft | 214 kts | 297° |
| 2026-05-07 13:36 | 51.13657 | 16.77435 | 3025 ft | 235 kts | 297° |
| 2026-05-07 13:36 | 51.14391 | 16.75028 | 3668 ft | 247 kts | 296° |
| 2026-05-07 13:36 | 51.15151 | 16.72522 | 4352 ft | 256 kts | 297° |
| 2026-05-07 13:37 | 51.15928 | 16.69973 | 5216 ft | 258 kts | 296° |
| 2026-05-07 13:37 | 51.16705 | 16.67425 | 6016 ft | 261 kts | 296° |
| 2026-05-07 13:37 | 51.17505 | 16.64790 | 6857 ft | 264 kts | 297° |
| 2026-05-07 13:37 | 51.18510 | 16.62368 | 7640 ft | 269 kts | 311° |
| 2026-05-07 13:38 | 51.19986 | 16.60491 | 8420 ft | 276 kts | 330° |
| 2026-05-07 13:38 | 51.21790 | 16.59477 | 9194 ft | 284 kts | 348° |
| 2026-05-07 13:38 | 51.23780 | 16.59432 | 9973 ft | 292 kts | 8° |
| 2026-05-07 13:38 | 51.25717 | 16.60516 | 10758 ft | 300 kts | 26° |
| 2026-05-07 13:39 | 51.27523 | 16.62140 | 11546 ft | 304 kts | 28° |
| 2026-05-07 13:39 | 51.29375 | 16.63766 | 12287 ft | 310 kts | 27° |
| 2026-05-07 13:39 | 51.31281 | 16.65445 | 13088 ft | 314 kts | 31° |
| 2026-05-07 13:39 | 51.32992 | 16.67618 | 13825 ft | 322 kts | 47° |
| 2026-05-07 13:40 | 51.34222 | 16.70604 | 14597 ft | 326 kts | 67° |
| 2026-05-07 13:40 | 51.34833 | 16.74142 | 15221 ft | 336 kts | 84° |
| 2026-05-07 13:40 | 51.34735 | 16.77965 | 15372 ft | 356 kts | 108° |
| 2026-05-07 13:40 | 51.33777 | 16.81557 | 16090 ft | 357 kts | 120° |
| 2026-05-07 13:41 | 51.32653 | 16.85164 | 16628 ft | 368 kts | 118° |
| 2026-05-07 13:41 | 51.31559 | 16.88896 | 17328 ft | 373 kts | 118° |
| 2026-05-07 13:41 | 51.30441 | 16.92654 | 17996 ft | 377 kts | 118° |
| 2026-05-07 13:41 | 51.29303 | 16.96403 | 18669 ft | 381 kts | 118° |
| 2026-05-07 13:42 | 51.28144 | 17.00207 | 19317 ft | 385 kts | 118° |
| 2026-05-07 13:42 | 51.27137 | 17.04192 | 19932 ft | 391 kts | 108° |
| 2026-05-07 13:42 | 51.26696 | 17.08510 | 20528 ft | 398 kts | 92° |
| 2026-05-07 13:42 | 51.26928 | 17.12921 | 21123 ft | 403 kts | 78° |
| 2026-05-07 13:43 | 51.27692 | 17.17237 | 21723 ft | 406 kts | 71° |
| 2026-05-07 13:43 | 51.28574 | 17.21490 | 22252 ft | 410 kts | 71° |
| 2026-05-07 13:43 | 51.29444 | 17.25892 | 22800 ft | 414 kts | 72° |
| 2026-05-07 13:43 | 51.30292 | 17.30260 | 23326 ft | 417 kts | 72° |
| 2026-05-07 13:44 | 51.31157 | 17.34682 | 23840 ft | 420 kts | 71° |
| 2026-05-07 13:44 | 51.32040 | 17.39179 | 24343 ft | 424 kts | 71° |
| 2026-05-07 13:44 | 51.32916 | 17.43650 | 24829 ft | 427 kts | 71° |
| 2026-05-07 13:44 | 51.33806 | 17.48208 | 25308 ft | 430 kts | 71° |
| 2026-05-07 13:45 | 51.34698 | 17.52778 | 25772 ft | 432 kts | 71° |
| 2026-05-07 13:45 | 51.35583 | 17.57324 | 26231 ft | 435 kts | 71° |
| 2026-05-07 13:45 | 51.36479 | 17.61937 | 26897 ft | 431 kts | 70° |
| 2026-05-07 13:45 | 51.37356 | 17.66463 | 27484 ft | 430 kts | 71° |
| 2026-05-07 13:46 | 51.38243 | 17.71049 | 28028 ft | 428 kts | 71° |
| 2026-05-07 13:46 | 51.39125 | 17.75618 | 28587 ft | 427 kts | 71° |
| 2026-05-07 13:46 | 51.39972 | 17.80018 | 29093 ft | 425 kts | 71° |
| 2026-05-07 13:46 | 51.40836 | 17.84517 | 29601 ft | 424 kts | 70° |
| 2026-05-07 13:47 | 51.41704 | 17.89045 | 30101 ft | 423 kts | 70° |
| 2026-05-07 13:47 | 51.42566 | 17.93552 | 30581 ft | 422 kts | 70° |
| 2026-05-07 13:47 | 51.43413 | 17.97991 | 30968 ft | 421 kts | 70° |
| 2026-05-07 13:48 | 51.45153 | 18.07080 | 30986 ft | 424 kts | 69° |
| 2026-05-07 13:48 | 51.47155 | 18.15886 | 30977 ft | 419 kts | 66° |
| 2026-05-07 13:49 | 51.49159 | 18.24612 | 30967 ft | 419 kts | 66° |
| 2026-05-07 13:49 | 51.51147 | 18.33401 | 30961 ft | 419 kts | 66° |
| 2026-05-07 13:49 | 51.52142 | 18.37807 | 30724 ft | 418 kts | 66° |
| 2026-05-07 13:50 | 51.53112 | 18.42127 | 30475 ft | 413 kts | 67° |
| 2026-05-07 13:50 | 51.54084 | 18.46463 | 30224 ft | 409 kts | 67° |
| 2026-05-07 13:50 | 51.55045 | 18.50755 | 29974 ft | 407 kts | 67° |
| 2026-05-07 13:50 | 51.55956 | 18.55034 | 29733 ft | 414 kts | 70° |
| 2026-05-07 13:51 | 51.56663 | 18.59561 | 29491 ft | 425 kts | 77° |
| 2026-05-07 13:51 | 51.56992 | 18.64344 | 29237 ft | 429 kts | 86° |
| 2026-05-07 13:51 | 51.57043 | 18.69148 | 28985 ft | 430 kts | 88° |
| 2026-05-07 13:51 | 51.57093 | 18.73998 | 28730 ft | 429 kts | 87° |
| 2026-05-07 13:52 | 51.57178 | 18.78733 | 28481 ft | 428 kts | 87° |
| 2026-05-07 13:52 | 51.57259 | 18.83528 | 28229 ft | 428 kts | 88° |
| 2026-05-07 13:52 | 51.57326 | 18.88300 | 27979 ft | 428 kts | 88° |
| 2026-05-07 13:52 | 51.57388 | 18.93084 | 27728 ft | 428 kts | 88° |
| 2026-05-07 13:53 | 51.57445 | 18.97793 | 27482 ft | 428 kts | 88° |
| 2026-05-07 13:53 | 51.57502 | 19.02638 | 27234 ft | 433 kts | 88° |
| 2026-05-07 13:53 | 51.57556 | 19.07501 | 26987 ft | 442 kts | 88° |
| 2026-05-07 13:53 | 51.57608 | 19.12460 | 26732 ft | 443 kts | 88° |
| 2026-05-07 13:54 | 51.57655 | 19.17347 | 26480 ft | 439 kts | 88° |
| 2026-05-07 13:54 | 51.57701 | 19.22278 | 26224 ft | 435 kts | 88° |
| 2026-05-07 13:54 | 51.57744 | 19.27109 | 25973 ft | 433 kts | 88° |
| 2026-05-07 13:54 | 51.57785 | 19.31899 | 25724 ft | 432 kts | 88° |
| 2026-05-07 13:55 | 51.57824 | 19.36715 | 25474 ft | 430 kts | 88° |
| 2026-05-07 13:55 | 51.57860 | 19.41567 | 25221 ft | 429 kts | 88° |
| 2026-05-07 13:55 | 51.57894 | 19.46353 | 24970 ft | 428 kts | 88° |
| 2026-05-07 13:55 | 51.57927 | 19.51088 | 24697 ft | 424 kts | 88° |
| 2026-05-07 13:56 | 51.57956 | 19.55764 | 24184 ft | 418 kts | 88° |
| 2026-05-07 13:56 | 51.57983 | 19.60442 | 23605 ft | 414 kts | 88° |
| 2026-05-07 13:56 | 51.58009 | 19.64990 | 23025 ft | 410 kts | 88° |
| 2026-05-07 13:56 | 51.58033 | 19.69543 | 22438 ft | 406 kts | 89° |
| 2026-05-07 13:57 | 51.58057 | 19.74060 | 21854 ft | 402 kts | 89° |
| 2026-05-07 13:57 | 51.58077 | 19.78533 | 21272 ft | 398 kts | 89° |
| 2026-05-07 13:57 | 51.58096 | 19.82949 | 20696 ft | 394 kts | 89° |
| 2026-05-07 13:57 | 51.58113 | 19.87304 | 20124 ft | 391 kts | 90° |
| 2026-05-07 13:58 | 51.58128 | 19.91640 | 19552 ft | 387 kts | 90° |
| 2026-05-07 13:58 | 51.58141 | 19.95933 | 19039 ft | 382 kts | 90° |
| 2026-05-07 13:58 | 51.58067 | 20.00174 | 18995 ft | 382 kts | 94° |
| 2026-05-07 13:58 | 51.57908 | 20.04484 | 18733 ft | 380 kts | 94° |
| 2026-05-07 13:59 | 51.57760 | 20.08642 | 18253 ft | 377 kts | 94° |
| 2026-05-07 13:59 | 51.57622 | 20.12878 | 17705 ft | 380 kts | 94° |
| 2026-05-07 13:59 | 51.57484 | 20.17108 | 17136 ft | 376 kts | 94° |
| 2026-05-07 13:59 | 51.57347 | 20.21241 | 16577 ft | 372 kts | 94° |
| 2026-05-07 14:00 | 51.57209 | 20.25380 | 16012 ft | 368 kts | 94° |
| 2026-05-07 14:00 | 51.57071 | 20.29472 | 15441 ft | 365 kts | 94° |
| 2026-05-07 14:00 | 51.56936 | 20.33480 | 14891 ft | 362 kts | 94° |
| 2026-05-07 14:00 | 51.56800 | 20.37479 | 14339 ft | 358 kts | 94° |
| 2026-05-07 14:01 | 51.56742 | 20.41448 | 13775 ft | 356 kts | 88° |
| 2026-05-07 14:01 | 51.57034 | 20.45379 | 13229 ft | 353 kts | 78° |
| 2026-05-07 14:01 | 51.57766 | 20.49129 | 12699 ft | 350 kts | 68° |
| 2026-05-07 14:01 | 51.58711 | 20.52710 | 12166 ft | 346 kts | 67° |
| 2026-05-07 14:02 | 51.59637 | 20.56275 | 11638 ft | 343 kts | 68° |
| 2026-05-07 14:02 | 51.60525 | 20.59749 | 11124 ft | 340 kts | 67° |
| 2026-05-07 14:02 | 51.61430 | 20.63259 | 10615 ft | 336 kts | 67° |
| 2026-05-07 14:02 | 51.62309 | 20.66664 | 10300 ft | 326 kts | 68° |
| 2026-05-07 14:03 | 51.63170 | 20.70004 | 10130 ft | 312 kts | 68° |
| 2026-05-07 14:03 | 51.63998 | 20.73217 | 9787 ft | 307 kts | 67° |
| 2026-05-07 14:03 | 51.64808 | 20.76363 | 9381 ft | 304 kts | 68° |
| 2026-05-07 14:03 | 51.65604 | 20.79457 | 8987 ft | 301 kts | 68° |
| 2026-05-07 14:04 | 51.66402 | 20.82568 | 8594 ft | 298 kts | 67° |
| 2026-05-07 14:04 | 51.67192 | 20.85648 | 8205 ft | 295 kts | 67° |
| 2026-05-07 14:04 | 51.68014 | 20.88612 | 7821 ft | 291 kts | 58° |
| 2026-05-07 14:04 | 51.69329 | 20.91009 | 7445 ft | 284 kts | 32° |
| 2026-05-07 14:05 | 51.71106 | 20.92269 | 7111 ft | 276 kts | 14° |
| 2026-05-07 14:05 | 51.72912 | 20.93184 | 6754 ft | 277 kts | 17° |
| 2026-05-07 14:05 | 51.74759 | 20.94192 | 6389 ft | 280 kts | 16° |
| 2026-05-07 14:05 | 51.76590 | 20.95169 | 6026 ft | 276 kts | 16° |
| 2026-05-07 14:06 | 51.78395 | 20.96156 | 5664 ft | 273 kts | 18° |
| 2026-05-07 14:06 | 51.80157 | 20.97228 | 5303 ft | 271 kts | 19° |
| 2026-05-07 14:06 | 51.81908 | 20.98287 | 4951 ft | 268 kts | 18° |
| 2026-05-07 14:06 | 51.83642 | 20.99331 | 4598 ft | 265 kts | 18° |
| 2026-05-07 14:07 | 51.85363 | 21.00368 | 4273 ft | 261 kts | 18° |
| 2026-05-07 14:07 | 51.87013 | 21.01363 | 4125 ft | 250 kts | 18° |
| 2026-05-07 14:07 | 51.88601 | 21.02321 | 4050 ft | 237 kts | 18° |
| 2026-05-07 14:07 | 51.90154 | 21.03256 | 3962 ft | 236 kts | 18° |
| 2026-05-07 14:08 | 51.91656 | 21.04164 | 3874 ft | 224 kts | 18° |
| 2026-05-07 14:08 | 51.93080 | 21.05024 | 3791 ft | 213 kts | 18° |
| 2026-05-07 14:08 | 51.94461 | 21.05858 | 3720 ft | 217 kts | 18° |
| 2026-05-07 14:08 | 51.95855 | 21.06701 | 3625 ft | 209 kts | 18° |
| 2026-05-07 14:09 | 51.97220 | 21.07526 | 3562 ft | 215 kts | 18° |
| 2026-05-07 14:09 | 51.98641 | 21.08387 | 3461 ft | 214 kts | 18° |
| 2026-05-07 14:09 | 52.00025 | 21.09226 | 3385 ft | 215 kts | 18° |
| 2026-05-07 14:09 | 52.01486 | 21.09693 | 3276 ft | 211 kts | 353° |
| 2026-05-07 14:10 | 52.02806 | 21.08924 | 3107 ft | 196 kts | 323° |
| 2026-05-07 14:10 | 52.03909 | 21.07724 | 2949 ft | 185 kts | 330° |
| 2026-05-07 14:10 | 52.05010 | 21.06781 | 2717 ft | 173 kts | 329° |
| 2026-05-07 14:10 | 52.06036 | 21.05886 | 2481 ft | 164 kts | 329° |
| 2026-05-07 14:11 | 52.07036 | 21.05017 | 2272 ft | 163 kts | 329° |
| 2026-05-07 14:11 | 52.07990 | 21.04189 | 2053 ft | 152 kts | 329° |
| 2026-05-07 14:11 | 52.08918 | 21.03381 | 1869 ft | 148 kts | 329° |
| 2026-05-07 14:11 | 52.09811 | 21.02604 | 1662 ft | 144 kts | 330° |
| 2026-05-07 14:12 | 52.10698 | 21.01837 | 1460 ft | 145 kts | 329° |
| 2026-05-07 14:12 | 52.11582 | 21.01070 | 1262 ft | 141 kts | 330° |
| 2026-05-07 14:12 | 52.12448 | 21.00318 | 1077 ft | 143 kts | 330° |
| 2026-05-07 14:12 | 52.13338 | 20.99579 | 896 ft | 140 kts | 329° |
| 2026-05-07 14:13 | 52.14183 | 20.98812 | 711 ft | 141 kts | 330° |
| 2026-05-07 14:13 | 52.15048 | 20.98051 | 527 ft | 141 kts | 330° |
| 2026-05-07 14:13 | 52.15898 | 20.97310 | 373 ft | 130 kts | 330° |
| 2026-05-07 14:13 | 52.16591 | 20.96699 | 368 ft | 93 kts | 330° |
| 2026-05-07 14:14 | 52.17025 | 20.96318 | 368 ft | 38 kts | 331° |
| 2026-05-07 14:14 | 52.17210 | 20.96244 | 368 ft | 21 kts | 0° |
| 2026-05-07 14:14 | 52.17333 | 20.96248 | 368 ft | 13 kts | 0° |
| 2026-05-07 14:14 | 52.17402 | 20.96303 | 368 ft | 10 kts | 43° |
| 2026-05-07 14:15 | 52.17465 | 20.96332 | 368 ft | 10 kts | 339° |
| 2026-05-07 14:15 | 52.17530 | 20.96276 | 368 ft | 11 kts | 333° |
| 2026-05-07 14:15 | 52.17601 | 20.96213 | 368 ft | 12 kts | 331° |
| 2026-05-07 14:15 | 52.17676 | 20.96147 | 368 ft | 11 kts | 332° |
| 2026-05-07 14:16 | 52.17752 | 20.96091 | 368 ft | 11 kts | 349° |
| 2026-05-07 14:16 | 52.17807 | 20.96148 | 368 ft | 8 kts | 58° |
| 2026-05-07 14:16 | 52.17836 | 20.96229 | 368 ft | 3 kts | 54° |
| 2026-05-07 14:16 | 52.17861 | 20.96235 | 368 ft | 4 kts | 340° |
| 2026-05-07 14:17 | 52.17893 | 20.96211 | 368 ft | 3 kts | 332° |
| 2026-05-07 14:17 | 52.17899 | 20.96205 | 368 ft | 0 kts | 332° |
| 2026-05-07 14:17 | 52.17900 | 20.96205 | 368 ft | 0 kts | 332° |